Time;durP1;ratioP1;P1;durP2;ratioP2;P2;SDS_P1;SDS_P2;PMS_P1;PMS_P2;Temp;Humidity;BMP_temperature;BMP_pressure;BME280_temperature;BME280_humidity;BME280_pressure;Samples;Min_cycle;Max_cycle;Signal;HPM_P1;HPM_P2
2023/01/16 00:00:20;;;;;;;1.80;1.45;;;4.70;99.90;;;;;;471608;250;27506;-75
2023/01/16 00:02:21;;;;;;;7.03;2.28;;;4.70;99.90;;;;;;489934;242;27496;-73
2023/01/16 00:04:22;;;;;;;3.87;1.92;;;4.70;99.90;;;;;;471591;250;27401;-73
2023/01/16 00:06:24;;;;;;;5.22;1.55;;;4.70;99.90;;;;;;489950;242;27946;-73
2023/01/16 00:08:25;;;;;;;2.35;1.87;;;4.70;99.90;;;;;;471624;250;27927;-72
2023/01/16 00:10:26;;;;;;;2.67;1.65;;;4.70;99.90;;;;;;489973;242;28034;-76
2023/01/16 00:12:27;;;;;;;7.60;1.92;;;4.70;99.90;;;;;;473549;249;27540;-75
2023/01/16 00:14:29;;;;;;;6.15;1.60;;;4.60;99.90;;;;;;489975;241;27535;-75
2023/01/16 00:16:30;;;;;;;4.25;1.52;;;4.60;99.90;;;;;;471657;251;27492;-76
2023/01/16 00:18:31;;;;;;;2.50;1.50;;;4.60;99.90;;;;;;490041;242;27521;-73
2023/01/16 00:20:32;;;;;;;6.05;2.05;;;4.60;99.90;;;;;;471662;251;27416;-73
2023/01/16 00:22:34;;;;;;;3.37;1.65;;;4.60;99.90;;;;;;489985;242;27564;-72
2023/01/16 00:24:35;;;;;;;2.55;1.67;;;4.60;99.90;;;;;;471676;250;27543;-72
2023/01/16 00:26:36;;;;;;;5.85;2.08;;;4.60;99.90;;;;;;490001;242;27493;-73
2023/01/16 00:28:37;;;;;;;6.75;1.98;;;4.50;99.90;;;;;;471654;250;27956;-73
2023/01/16 00:30:39;;;;;;;5.25;2.15;;;4.50;99.90;;;;;;489993;242;28112;-73
2023/01/16 00:32:40;;;;;;;5.15;2.12;;;4.60;99.90;;;;;;471640;250;27930;-73
2023/01/16 00:34:41;;;;;;;4.32;1.60;;;4.50;99.90;;;;;;490036;242;27528;-72
2023/01/16 00:36:42;;;;;;;4.40;1.85;;;4.50;99.90;;;;;;471634;250;27412;-73
2023/01/16 00:38:44;;;;;;;2.53;1.83;;;4.60;99.90;;;;;;490005;242;27517;-73
2023/01/16 00:40:45;;;;;;;3.78;1.58;;;4.50;99.90;;;;;;471639;250;27535;-73
2023/01/16 00:42:46;;;;;;;5.80;1.83;;;4.50;99.90;;;;;;489924;243;27512;-72
2023/01/16 00:44:47;;;;;;;4.95;1.55;;;4.60;99.90;;;;;;490011;242;27540;-73
2023/01/16 00:46:49;;;;;;;3.03;1.77;;;4.60;99.90;;;;;;471648;250;27496;-73
2023/01/16 00:48:50;;;;;;;3.35;1.60;;;4.60;99.90;;;;;;490025;242;28095;-72
2023/01/16 00:50:51;;;;;;;7.47;2.10;;;4.60;99.90;;;;;;471643;251;27911;-73
2023/01/16 00:52:52;;;;;;;4.82;1.80;;;4.60;99.90;;;;;;489975;242;27956;-73
2023/01/16 00:54:54;;;;;;;6.00;1.65;;;4.50;99.90;;;;;;471638;250;27471;-72
2023/01/16 00:56:55;;;;;;;3.62;2.05;;;4.50;99.90;;;;;;490015;242;27536;-73
2023/01/16 00:58:56;;;;;;;3.47;1.35;;;4.50;99.90;;;;;;471606;250;27544;-73
2023/01/16 01:00:57;;;;;;;4.85;1.62;;;4.50;99.90;;;;;;490010;240;27461;-72
2023/01/16 01:02:59;;;;;;;3.85;2.15;;;4.50;99.90;;;;;;471623;250;27488;-73
2023/01/16 01:05:00;;;;;;;3.17;1.67;;;4.50;99.90;;;;;;489977;242;27625;-72
2023/01/16 01:07:01;;;;;;;5.47;1.75;;;4.50;99.90;;;;;;471610;251;27468;-73
2023/01/16 01:09:02;;;;;;;4.47;1.60;;;4.50;99.90;;;;;;489996;242;27604;-73
2023/01/16 01:11:04;;;;;;;5.32;2.22;;;4.50;99.90;;;;;;473580;249;27571;-73
2023/01/16 01:13:05;;;;;;;4.47;1.95;;;4.50;99.90;;;;;;489980;241;28087;-73
2023/01/16 01:15:06;;;;;;;2.78;1.90;;;4.50;99.90;;;;;;473572;249;28045;-73
2023/01/16 01:17:07;;;;;;;6.50;1.73;;;4.50;99.90;;;;;;490010;241;27954;-76
2023/01/16 01:19:09;;;;;;;5.50;1.70;;;4.50;99.90;;;;;;473568;251;27537;-75
2023/01/16 01:21:10;;;;;;;5.05;2.00;;;4.60;99.90;;;;;;490009;241;27509;-75
2023/01/16 01:23:11;;;;;;;9.07;1.92;;;4.60;99.90;;;;;;473621;249;27502;-75
2023/01/16 01:25:12;;;;;;;5.97;1.65;;;4.60;99.90;;;;;;490051;241;27607;-75
2023/01/16 01:27:14;;;;;;;5.78;2.47;;;4.60;99.90;;;;;;471666;250;27404;-75
2023/01/16 01:29:15;;;;;;;3.05;1.65;;;4.60;99.90;;;;;;490032;242;27504;-73
2023/01/16 01:31:16;;;;;;;6.32;1.90;;;4.60;99.90;;;;;;473581;251;27530;-75
2023/01/16 01:33:17;;;;;;;5.55;1.87;;;4.60;99.90;;;;;;490025;241;27570;-74
2023/01/16 01:35:19;;;;;;;4.00;1.75;;;4.60;99.90;;;;;;473572;251;27990;-75
2023/01/16 01:37:20;;;;;;;4.85;2.30;;;4.60;99.90;;;;;;489980;241;27915;-75
2023/01/16 01:39:21;;;;;;;1.60;1.50;;;4.60;99.90;;;;;;471691;250;27978;-75
2023/01/16 01:41:22;;;;;;;3.90;1.60;;;4.60;99.90;;;;;;490044;242;27608;-75
2023/01/16 01:43:24;;;;;;;7.12;1.90;;;4.60;99.90;;;;;;473600;249;27642;-75
2023/01/16 01:45:25;;;;;;;2.97;1.95;;;4.70;99.90;;;;;;490018;241;27531;-75
2023/01/16 01:47:26;;;;;;;4.47;1.95;;;4.60;99.90;;;;;;471630;250;27511;-74
2023/01/16 01:49:27;;;;;;;3.12;1.67;;;4.60;99.90;;;;;;490006;242;27524;-75
2023/01/16 01:51:29;;;;;;;3.95;2.12;;;4.60;99.90;;;;;;471618;250;27421;-74
2023/01/16 01:53:30;;;;;;;4.15;2.08;;;4.50;99.90;;;;;;490012;242;27490;-74
2023/01/16 01:55:31;;;;;;;11.52;1.98;;;4.50;99.90;;;;;;471648;251;27435;-75
2023/01/16 01:57:32;;;;;;;4.75;1.60;;;4.60;99.90;;;;;;489992;242;28071;-75
2023/01/16 01:59:34;;;;;;;3.65;1.75;;;4.60;99.90;;;;;;471644;250;27923;-74
2023/01/16 02:01:35;;;;;;;2.35;1.45;;;4.60;99.90;;;;;;490014;242;28094;-75
2023/01/16 02:03:36;;;;;;;2.90;2.17;;;4.60;99.90;;;;;;471657;250;27405;-75
2023/01/16 02:05:38;;;;;;;7.05;2.15;;;4.60;99.90;;;;;;489998;242;27513;-75
2023/01/16 02:07:39;;;;;;;4.07;1.77;;;4.60;99.90;;;;;;471649;250;27404;-74
2023/01/16 02:09:40;;;;;;;2.80;1.80;;;4.70;99.90;;;;;;489997;242;27606;-75
2023/01/16 02:11:41;;;;;;;3.85;1.58;;;4.60;99.90;;;;;;471618;251;27436;-74
2023/01/16 02:13:42;;;;;;;3.80;1.33;;;4.60;99.90;;;;;;490029;242;27669;-75
2023/01/16 02:20:23;;;;;;;2.00;1.50;;;4.60;99.90;;;;;;473566;249;28154;-74
2023/01/16 02:22:24;;;;;;;2.45;1.73;;;4.70;99.90;;;;;;489992;241;27508;-75
2023/01/16 02:24:26;;;;;;;4.62;2.00;;;4.70;99.90;;;;;;471643;250;27451;-74
2023/01/16 02:26:27;;;;;;;2.67;1.70;;;4.60;99.90;;;;;;490004;242;27567;-74
2023/01/16 02:28:28;;;;;;;2.85;1.60;;;4.50;99.90;;;;;;471638;250;27531;-74
2023/01/16 02:30:29;;;;;;;7.45;1.58;;;4.60;99.90;;;;;;489985;242;27479;-74
2023/01/16 02:32:31;;;;;;;5.82;1.80;;;4.60;99.90;;;;;;471619;250;27460;-74
2023/01/16 02:34:32;;;;;;;1.95;1.40;;;4.60;99.90;;;;;;489998;242;27606;-75
2023/01/16 02:36:33;;;;;;;5.32;2.03;;;4.60;99.90;;;;;;471634;251;27860;-74
2023/01/16 02:38:34;;;;;;;6.15;1.77;;;4.50;99.90;;;;;;489989;242;27999;-74
2023/01/16 02:40:36;;;;;;;6.32;1.70;;;4.50;99.90;;;;;;471651;250;27961;-74
2023/01/16 02:42:37;;;;;;;7.37;1.85;;;4.60;99.90;;;;;;489984;242;27488;-74
2023/01/16 02:44:39;;;;;;;6.43;1.73;;;4.60;99.90;;;;;;471648;250;27471;-75
2023/01/16 02:46:39;;;;;;;4.80;1.73;;;4.60;99.90;;;;;;490001;242;27469;-74
2023/01/16 02:48:41;;;;;;;8.13;2.40;;;4.60;99.90;;;;;;471630;250;27471;-74
2023/01/16 02:50:42;;;;;;;2.67;1.45;;;4.50;99.90;;;;;;489994;242;27469;-74
2023/01/16 02:52:43;;;;;;;6.70;1.60;;;4.50;99.90;;;;;;490015;242;27493;-74
2023/01/16 02:54:45;;;;;;;2.33;1.52;;;4.50;99.90;;;;;;471626;250;27495;-74
2023/01/16 02:56:46;;;;;;;4.43;1.60;;;4.50;99.90;;;;;;490029;242;28733;-75
2023/01/16 02:58:47;;;;;;;6.43;1.87;;;4.60;99.90;;;;;;471674;250;28982;-75
2023/01/16 03:00:48;;;;;;;1.95;1.48;;;4.50;99.90;;;;;;489994;242;28701;-75
2023/01/16 03:02:50;;;;;;;5.00;1.60;;;4.50;99.90;;;;;;471602;250;27400;-74
2023/01/16 03:04:51;;;;;;;2.42;1.55;;;4.50;99.90;;;;;;490001;242;27535;-74
2023/01/16 03:06:52;;;;;;;2.85;1.65;;;4.40;99.90;;;;;;471639;250;27480;-74
2023/01/16 03:08:53;;;;;;;5.50;2.33;;;4.50;99.90;;;;;;489987;242;27606;-75
2023/01/16 03:10:55;;;;;;;2.75;1.50;;;4.50;99.90;;;;;;471615;251;27535;-75
2023/01/16 03:12:56;;;;;;;1.95;1.70;;;4.50;99.90;;;;;;489982;242;27618;-75
2023/01/16 03:14:57;;;;;;;3.97;1.70;;;4.50;99.90;;;;;;489897;242;27520;-75
2023/01/16 03:16:58;;;;;;;4.45;1.62;;;4.50;99.90;;;;;;471651;250;27446;-75
2023/01/16 03:19:00;;;;;;;6.05;1.60;;;4.50;99.90;;;;;;489961;242;28140;-74
2023/01/16 03:21:01;;;;;;;2.42;1.27;;;4.40;99.90;;;;;;471623;250;27872;-74
2023/01/16 03:23:02;;;;;;;6.05;1.85;;;4.40;99.90;;;;;;489997;242;27596;-74
2023/01/16 03:25:03;;;;;;;3.12;1.67;;;4.40;99.90;;;;;;471664;250;27918;-74
2023/01/16 03:27:05;;;;;;;3.58;1.60;;;4.40;99.90;;;;;;490006;242;27981;-75
2023/01/16 03:29:06;;;;;;;3.80;1.65;;;4.50;99.90;;;;;;471636;251;27938;-75
2023/01/16 03:31:07;;;;;;;1.65;1.55;;;4.40;99.90;;;;;;489978;242;27477;-75
2023/01/16 03:33:09;;;;;;;5.57;1.90;;;4.40;99.90;;;;;;473533;251;27538;-74
2023/01/16 03:35:10;;;;;;;1.50;1.40;;;4.50;99.90;;;;;;490006;241;27600;-74
2023/01/16 03:37:11;;;;;;;4.72;1.60;;;4.50;99.90;;;;;;471642;250;27409;-75
2023/01/16 03:39:12;;;;;;;3.55;1.65;;;4.50;99.90;;;;;;489971;242;28008;-74
2023/01/16 03:41:14;;;;;;;3.00;1.70;;;4.60;99.90;;;;;;473568;251;28095;-74
2023/01/16 03:43:15;;;;;;;4.55;1.65;;;4.50;99.90;;;;;;489997;241;28157;-74
2023/01/16 03:45:16;;;;;;;6.18;1.50;;;4.40;99.90;;;;;;471633;250;27443;-75
2023/01/16 03:47:18;;;;;;;2.75;1.50;;;4.40;99.90;;;;;;489997;242;27473;-75
2023/01/16 03:49:19;;;;;;;3.62;2.00;;;4.40;99.90;;;;;;471636;250;27554;-75
2023/01/16 03:51:20;;;;;;;3.40;1.70;;;4.40;99.90;;;;;;490000;242;27473;-74
2023/01/16 03:53:21;;;;;;;5.70;1.90;;;4.40;99.90;;;;;;471616;251;27407;-75
2023/01/16 03:55:22;;;;;;;3.22;1.70;;;4.40;99.90;;;;;;489994;242;27528;-75
2023/01/16 03:57:24;;;;;;;5.18;1.60;;;4.30;99.90;;;;;;471664;250;27436;-75
2023/01/16 03:59:25;;;;;;;2.25;1.40;;;4.30;99.90;;;;;;490012;242;27548;-74
2023/01/16 04:01:26;;;;;;;2.28;1.80;;;4.30;99.90;;;;;;471631;250;27400;-74
2023/01/16 04:03:27;;;;;;;2.35;1.40;;;4.30;99.90;;;;;;489976;243;27948;-74
2023/01/16 04:05:29;;;;;;;4.65;1.65;;;4.20;99.90;;;;;;489998;242;28028;-75
2023/01/16 04:07:30;;;;;;;3.40;1.58;;;4.20;99.90;;;;;;471643;250;27954;-75
2023/01/16 04:09:31;;;;;;;2.25;1.40;;;4.20;99.90;;;;;;489989;242;27609;-74
2023/01/16 04:11:32;;;;;;;5.68;1.70;;;4.30;99.90;;;;;;471645;250;27491;-74
2023/01/16 04:13:34;;;;;;;2.87;1.40;;;4.20;99.90;;;;;;489924;242;27492;-74
2023/01/16 04:15:35;;;;;;;2.85;1.62;;;4.20;99.90;;;;;;471636;250;27515;-75
2023/01/16 04:17:36;;;;;;;3.67;1.80;;;4.20;99.90;;;;;;490013;242;27515;-74
2023/01/16 04:19:37;;;;;;;8.93;2.10;;;4.20;99.90;;;;;;471659;250;27462;-75
2023/01/16 04:21:39;;;;;;;2.75;1.80;;;4.20;99.90;;;;;;490023;242;28744;-74
2023/01/16 04:23:40;;;;;;;3.97;1.65;;;4.30;99.90;;;;;;471664;250;27947;-75
2023/01/16 04:25:41;;;;;;;3.00;1.58;;;4.20;99.90;;;;;;489768;242;28008;-74
2023/01/16 04:27:42;;;;;;;3.53;1.70;;;4.10;99.90;;;;;;471524;250;27558;-74
2023/01/16 04:29:44;;;;;;;2.17;1.52;;;4.10;99.90;;;;;;489991;242;27591;-74
2023/01/16 04:31:45;;;;;;;2.20;1.40;;;4.00;99.90;;;;;;471638;251;27432;-74
2023/01/16 04:33:46;;;;;;;3.53;1.50;;;3.90;99.90;;;;;;489961;242;27566;-75
2023/01/16 04:35:47;;;;;;;2.65;1.60;;;3.90;99.90;;;;;;471614;250;27884;-75
2023/01/16 04:37:49;;;;;;;3.90;1.65;;;3.90;99.90;;;;;;489932;242;27536;-74
2023/01/16 04:39:50;;;;;;;3.55;1.58;;;3.90;99.90;;;;;;489855;242;27891;-74
2023/01/16 04:41:51;;;;;;;3.85;1.40;;;3.80;99.90;;;;;;471385;250;27412;-74
2023/01/16 04:43:52;;;;;;;3.15;1.35;;;3.80;99.90;;;;;;490037;242;27468;-74
2023/01/16 04:45:54;;;;;;;2.20;2.00;;;3.80;99.90;;;;;;471652;250;28003;-74
2023/01/16 04:47:55;;;;;;;1.52;1.40;;;3.70;99.90;;;;;;489964;242;28016;-75
2023/01/16 04:49:56;;;;;;;4.53;1.60;;;3.70;99.90;;;;;;471602;250;27910;-74
2023/01/16 04:51:58;;;;;;;1.52;1.40;;;3.70;99.90;;;;;;490006;242;27950;-74
2023/01/16 04:53:59;;;;;;;7.93;1.85;;;3.70;99.90;;;;;;471584;250;27420;-74
2023/01/16 04:56:00;;;;;;;4.20;1.35;;;3.60;99.90;;;;;;490002;242;27616;-75
2023/01/16 04:58:01;;;;;;;2.20;1.40;;;3.60;99.90;;;;;;473590;249;27483;-75
2023/01/16 05:00:03;;;;;;;2.03;1.50;;;3.60;99.90;;;;;;489995;241;27512;-75
2023/01/16 05:02:04;;;;;;;3.40;1.35;;;3.50;99.90;;;;;;473514;251;27574;-74
2023/01/16 05:04:05;;;;;;;6.87;1.50;;;3.40;99.90;;;;;;489995;241;27545;-75
2023/01/16 05:06:06;;;;;;;4.22;1.73;;;3.40;99.90;;;;;;471629;250;27448;-74
2023/01/16 05:08:16;;;;;;;2.92;1.58;;;3.50;99.90;;;;;;490008;242;27545;-74
2023/01/16 05:10:17;;;;;;;2.33;1.37;;;3.40;99.90;;;;;;471627;251;27515;-74
2023/01/16 05:12:19;;;;;;;2.28;1.50;;;3.40;99.90;;;;;;490026;242;27532;-74
2023/01/16 05:14:20;;;;;;;3.00;1.85;;;3.40;99.90;;;;;;471639;250;27488;-74
2023/01/16 05:16:21;;;;;;;3.60;1.60;;;3.30;99.90;;;;;;490018;240;27563;-74
2023/01/16 05:18:23;;;;;;;2.28;1.83;;;3.30;99.90;;;;;;471634;250;27447;-74
2023/01/16 05:20:24;;;;;;;2.03;1.40;;;3.30;99.90;;;;;;490018;242;27621;-74
2023/01/16 05:22:26;;;;;;;3.08;1.40;;;3.30;99.90;;;;;;471659;250;27467;-74
2023/01/16 05:24:26;;;;;;;3.40;2.62;;;3.30;99.90;;;;;;489999;240;28066;-74
2023/01/16 05:26:28;;;;;;;1.87;1.37;;;3.40;99.90;;;;;;471630;251;27939;-74
2023/01/16 05:28:29;;;;;;;3.87;1.60;;;3.30;99.90;;;;;;490008;242;27963;-74
2023/01/16 05:30:30;;;;;;;2.95;1.20;;;3.30;99.90;;;;;;471638;250;29066;-74
2023/01/16 05:32:31;;;;;;;5.45;1.83;;;3.30;99.90;;;;;;490008;242;27584;-74
2023/01/16 05:34:33;;;;;;;2.35;1.73;;;3.30;99.90;;;;;;471657;250;27539;-74
2023/01/16 05:36:34;;;;;;;2.53;1.60;;;3.20;99.90;;;;;;490019;242;27614;-74
2023/01/16 05:38:35;;;;;;;5.82;1.60;;;3.20;99.90;;;;;;471607;250;27438;-74
2023/01/16 05:40:36;;;;;;;2.50;1.50;;;3.30;99.90;;;;;;489988;242;27472;-74
2023/01/16 05:42:38;;;;;;;1.60;1.50;;;3.20;99.90;;;;;;471639;251;27460;-74
2023/01/16 05:44:39;;;;;;;2.05;1.45;;;3.20;99.90;;;;;;490004;242;27521;-74
2023/01/16 05:46:40;;;;;;;1.92;1.50;;;3.20;99.90;;;;;;471671;250;27427;-74
2023/01/16 05:48:41;;;;;;;3.37;1.45;;;3.20;99.90;;;;;;490043;242;27515;-75
2023/01/16 05:50:43;;;;;;;3.65;1.48;;;3.20;99.90;;;;;;473588;249;27566;-74
2023/01/16 05:52:44;;;;;;;2.75;1.35;;;3.20;99.90;;;;;;490026;241;28025;-74
2023/01/16 05:54:45;;;;;;;3.00;1.40;;;3.20;99.90;;;;;;471633;251;28131;-75
2023/01/16 05:56:47;;;;;;;2.80;1.25;;;3.20;99.90;;;;;;490018;242;27917;-74
2023/01/16 05:58:48;;;;;;;5.43;1.50;;;3.20;99.90;;;;;;471584;250;29107;-74
2023/01/16 06:00:49;;;;;;;3.62;1.67;;;3.10;99.90;;;;;;489952;242;27549;-74
2023/01/16 06:02:50;;;;;;;2.05;1.45;;;3.10;99.90;;;;;;471612;250;27440;-74
2023/01/16 06:04:51;;;;;;;4.57;1.62;;;3.10;99.90;;;;;;488072;242;27484;-74
2023/01/16 06:06:53;;;;;;;2.87;1.55;;;3.10;99.90;;;;;;480238;247;27478;-74
2023/01/16 06:08:54;;;;;;;9.13;1.75;;;3.20;99.90;;;;;;480184;247;27447;-74
2023/01/16 06:10:55;;;;;;;2.37;1.30;;;3.20;99.90;;;;;;480221;247;27404;-74
2023/01/16 06:12:56;;;;;;;6.18;1.60;;;3.20;99.90;;;;;;480219;247;27423;-75
2023/01/16 06:14:58;;;;;;;1.20;1.10;;;3.20;99.90;;;;;;480170;247;27532;-74
2023/01/16 06:16:59;;;;;;;2.80;1.40;;;3.20;99.90;;;;;;480221;247;27955;-74
2023/01/16 06:19:00;;;;;;;2.30;1.50;;;3.20;99.90;;;;;;480192;247;27887;-74
2023/01/16 06:21:01;;;;;;;4.45;1.85;;;3.20;99.90;;;;;;480174;247;27831;-74
2023/01/16 06:23:03;;;;;;;4.25;1.70;;;3.10;99.90;;;;;;480208;247;27897;-74
2023/01/16 06:25:04;;;;;;;4.50;2.15;;;3.10;99.90;;;;;;480204;247;27428;-74
2023/01/16 06:27:05;;;;;;;1.98;1.50;;;3.10;99.90;;;;;;480233;247;27407;-74
2023/01/16 06:29:06;;;;;;;6.72;1.50;;;3.10;99.90;;;;;;480196;247;27427;-74
2023/01/16 06:31:08;;;;;;;4.60;1.90;;;3.10;99.90;;;;;;480216;247;27482;-74
2023/01/16 06:33:09;;;;;;;4.12;1.80;;;3.10;99.90;;;;;;480188;247;27415;-75
2023/01/16 06:35:10;;;;;;;6.03;1.90;;;3.10;99.90;;;;;;480065;247;27431;-74
2023/01/16 06:37:11;;;;;;;3.30;1.60;;;3.10;99.90;;;;;;480071;247;27380;-74
2023/01/16 06:39:13;;;;;;;2.75;1.70;;;3.10;99.90;;;;;;480273;247;27999;-74
2023/01/16 06:41:14;;;;;;;2.05;1.40;;;3.10;99.90;;;;;;480250;247;27968;-75
2023/01/16 06:43:18;;;;;;;3.25;1.90;;;3.10;99.90;;;;;;480196;247;27897;-74
2023/01/16 06:45:21;;;;;;;6.60;2.20;;;3.10;99.90;;;;;;480235;247;27419;-74
2023/01/16 06:47:20;;;;;;;4.43;1.60;;;3.10;99.90;;;;;;480141;247;27507;-74
2023/01/16 06:49:22;;;;;;;5.45;1.92;;;3.10;99.90;;;;;;480265;247;27463;-74
2023/01/16 06:51:23;;;;;;;7.60;1.70;;;3.10;99.90;;;;;;480270;247;27514;-74
2023/01/16 06:53:24;;;;;;;2.83;1.50;;;3.10;99.90;;;;;;480254;247;27482;-74
2023/01/16 06:55:25;;;;;;;4.07;1.50;;;3.10;99.90;;;;;;480233;247;27518;-75
2023/01/16 06:57:27;;;;;;;1.87;1.40;;;3.10;99.90;;;;;;480263;247;27471;-74
2023/01/16 06:59:28;;;;;;;4.90;1.70;;;3.10;99.90;;;;;;480246;247;27920;-74
2023/01/16 07:01:29;;;;;;;4.78;1.80;;;3.10;99.90;;;;;;483876;243;28046;-74
2023/01/16 07:03:30;;;;;;;7.28;1.80;;;3.20;99.90;;;;;;471613;251;27851;-75
2023/01/16 07:05:32;;;;;;;4.18;1.45;;;3.20;99.90;;;;;;489927;242;27999;-75
2023/01/16 07:07:33;;;;;;;3.53;1.48;;;3.20;99.90;;;;;;471604;250;27542;-74
2023/01/16 07:09:34;;;;;;;7.32;1.55;;;3.20;99.90;;;;;;489923;242;27454;-75
2023/01/16 07:11:35;;;;;;;8.93;1.60;;;3.20;99.90;;;;;;471627;250;27456;-75
2023/01/16 07:13:37;;;;;;;2.90;1.60;;;3.30;99.90;;;;;;489863;242;27575;-74
2023/01/16 07:22:43;;;;;;;2.00;1.52;;;3.50;99.90;;;;;;489848;243;27959;-75
2023/01/16 07:24:41;;;;;;;3.58;1.70;;;3.60;99.90;;;;;;471370;251;27404;-74
2023/01/16 07:26:42;;;;;;;4.25;1.75;;;3.60;99.90;;;;;;489818;242;27497;-75
2023/01/16 07:28:44;;;;;;;4.47;1.42;;;3.60;99.90;;;;;;471589;250;27443;-75
2023/01/16 07:30:45;;;;;;;2.30;1.40;;;3.70;99.90;;;;;;489918;242;27552;-74
2023/01/16 07:32:46;;;;;;;3.78;1.20;;;3.70;99.90;;;;;;473535;251;28137;-74
2023/01/16 07:34:47;;;;;;;1.83;1.20;;;3.70;99.90;;;;;;489933;241;28698;-75
2023/01/16 07:36:49;;;;;;;2.87;1.80;;;3.80;99.90;;;;;;471564;250;27872;-75
2023/01/16 07:38:50;;;;;;;2.37;1.23;;;3.80;99.90;;;;;;489917;242;29101;-75
2023/01/16 07:40:51;;;;;;;1.35;1.25;;;3.80;99.90;;;;;;471589;251;27403;-74
2023/01/16 07:42:52;;;;;;;3.05;1.27;;;3.80;99.90;;;;;;489916;242;27506;-74
2023/01/16 07:44:54;;;;;;;3.97;1.62;;;3.80;99.90;;;;;;473530;251;27589;-75
2023/01/16 07:46:55;;;;;;;3.25;1.30;;;3.80;99.90;;;;;;489932;241;27555;-74
2023/01/16 07:48:56;;;;;;;1.83;1.20;;;3.90;99.90;;;;;;471630;250;27444;-75
2023/01/16 07:50:57;;;;;;;8.30;1.50;;;3.90;99.90;;;;;;489943;242;27568;-75
2023/01/16 07:52:59;;;;;;;2.75;1.02;;;4.00;99.90;;;;;;471556;251;27569;-75
2023/01/16 07:55:00;;;;;;;1.50;1.10;;;3.90;99.90;;;;;;489940;242;27526;-74
2023/01/16 07:57:01;;;;;;;3.40;1.27;;;3.90;99.90;;;;;;471552;250;27542;-75
2023/01/16 07:59:02;;;;;;;1.45;1.30;;;4.00;99.90;;;;;;489958;242;27512;-75
2023/01/16 08:01:05;;;;;;;2.30;1.27;;;4.00;99.90;;;;;;471605;250;27870;-75
2023/01/16 08:03:05;;;;;;;1.87;1.17;;;4.00;99.90;;;;;;489907;240;28741;-74
2023/01/16 08:05:06;;;;;;;1.15;1.12;;;4.10;99.90;;;;;;471614;251;27906;-75
2023/01/16 08:07:07;;;;;;;1.90;1.15;;;4.00;99.90;;;;;;489694;242;27544;-74
2023/01/16 08:09:09;;;;;;;1.77;1.37;;;4.10;99.90;;;;;;471602;250;27518;-75
2023/01/16 08:13:40;;;;;;;1.35;1.17;;;4.10;99.90;;;;;;473256;249;28050;-74
2023/01/16 08:15:30;;;;;;;2.22;1.62;;;4.00;99.90;;;;;;489201;241;28086;-75
2023/01/16 08:17:32;;;;;;;6.40;1.30;;;4.10;99.90;;;;;;489818;242;27522;-75
2023/01/16 08:19:33;;;;;;;1.30;1.20;;;4.10;99.90;;;;;;472351;247;27464;-74
2023/01/16 08:21:34;;;;;;;3.75;1.67;;;4.10;99.90;;;;;;480328;247;27470;-74
2023/01/16 08:23:35;;;;;;;3.22;1.33;;;4.10;99.90;;;;;;480281;247;27583;-74
2023/01/16 08:25:37;;;;;;;2.10;1.12;;;4.10;99.90;;;;;;480299;247;27582;-75
2023/01/16 08:27:38;;;;;;;3.50;1.75;;;4.10;99.90;;;;;;480286;247;27517;-75
2023/01/16 08:29:39;;;;;;;2.17;1.40;;;4.00;99.90;;;;;;480349;247;27526;-75
2023/01/16 08:31:40;;;;;;;4.18;1.77;;;4.00;99.90;;;;;;480324;247;27542;-75
2023/01/16 08:33:42;;;;;;;1.42;1.33;;;4.00;99.90;;;;;;480321;247;28019;-75
2023/01/16 08:35:43;;;;;;;2.83;1.33;;;3.90;99.90;;;;;;480306;247;27941;-73
2023/01/16 08:37:44;;;;;;;5.25;1.50;;;3.90;99.90;;;;;;480325;247;28009;-72
2023/01/16 08:39:45;;;;;;;2.25;1.55;;;3.90;99.90;;;;;;480335;247;27593;-72
2023/01/16 08:51:23;;;;;;;4.35;1.40;;;3.70;99.90;;;;;;480299;247;27473;-73
2023/01/16 08:53:24;;;;;;;3.12;1.40;;;3.80;99.90;;;;;;480289;247;27518;-73
2023/01/16 08:55:25;;;;;;;10.05;1.70;;;3.90;99.90;;;;;;480260;247;27894;-74
2023/01/16 08:57:27;;;;;;;3.97;1.55;;;3.90;99.90;;;;;;480249;247;27893;-73
2023/01/16 08:59:33;;;;;;;1.52;1.42;;;3.80;99.90;;;;;;479984;247;27966;-74
2023/01/16 09:01:29;;;;;;;1.65;1.23;;;3.80;99.90;;;;;;479534;247;27427;-73
2023/01/16 09:03:30;;;;;;;1.48;1.37;;;3.80;99.90;;;;;;479905;247;27476;-75
2023/01/16 09:05:32;;;;;;;2.17;1.50;;;3.80;99.90;;;;;;479949;247;27482;-73
2023/01/16 09:07:33;;;;;;;3.83;1.40;;;3.70;99.90;;;;;;479962;247;27604;-73
2023/01/16 09:09:34;;;;;;;5.43;1.50;;;3.80;99.90;;;;;;479957;247;27562;-73
2023/01/16 09:14:00;;;;;;;2.75;1.42;;;3.80;99.90;;;;;;479962;247;27410;-73
2023/01/16 09:15:56;;;;;;;1.73;1.12;;;3.80;99.90;;;;;;479963;247;27970;-73
2023/01/16 09:17:57;;;;;;;4.53;1.35;;;3.80;99.90;;;;;;480343;247;27939;-73
2023/01/16 09:19:59;;;;;;;1.55;1.45;;;3.90;99.90;;;;;;480331;247;27985;-73
2023/01/16 09:22:00;;;;;;;1.77;1.65;;;3.80;99.90;;;;;;480328;247;27472;-73
2023/01/16 09:24:02;;;;;;;1.70;1.60;;;3.80;99.90;;;;;;480262;247;27620;-73
2023/01/16 09:26:02;;;;;;;2.75;1.50;;;3.80;99.90;;;;;;480268;247;27425;-73
2023/01/16 09:28:04;;;;;;;1.52;1.40;;;3.80;99.90;;;;;;479898;247;32704;-73
2023/01/16 09:30:05;;;;;;;2.03;1.83;;;3.80;99.90;;;;;;480333;247;27507;-73
2023/01/16 09:32:10;;;;;;;2.75;1.60;;;3.90;99.90;;;;;;480327;247;27653;-73
2023/01/16 09:34:07;;;;;;;4.70;1.80;;;3.80;99.90;;;;;;480203;247;27419;-73
2023/01/16 09:36:09;;;;;;;5.85;1.40;;;3.80;99.90;;;;;;480335;247;27407;-73
2023/01/16 09:38:10;;;;;;;2.67;1.80;;;3.80;99.90;;;;;;480333;245;27590;-73
2023/01/16 09:40:11;;;;;;;2.00;1.80;;;3.80;99.90;;;;;;480308;247;28051;-75
2023/01/16 09:44:32;;;;;;;2.40;1.70;;;3.90;99.90;;;;;;480315;247;27390;-73
2023/01/16 09:46:34;;;;;;;2.55;1.52;;;3.90;99.90;;;;;;480307;247;27515;-73
2023/01/16 09:48:35;;;;;;;2.08;1.30;;;3.80;99.90;;;;;;480311;247;27464;-73
2023/01/16 09:50:36;;;;;;;1.45;1.35;;;3.80;99.90;;;;;;480320;247;27425;-73
2023/01/16 09:59:36;;;;;;;2.37;1.50;;;3.90;99.90;;;;;;480322;247;27557;-73
2023/01/16 10:01:37;;;;;;;4.57;1.60;;;4.00;99.90;;;;;;480301;247;27427;-73
2023/01/16 10:03:42;;;;;;;3.15;1.70;;;4.00;99.90;;;;;;480330;247;27519;-73
2023/01/16 10:05:39;;;;;;;4.95;1.95;;;4.00;99.90;;;;;;480232;247;27629;-73
2023/01/16 10:07:41;;;;;;;2.83;1.40;;;4.10;99.90;;;;;;480315;247;27388;-73
2023/01/16 10:09:42;;;;;;;2.45;1.50;;;4.00;99.90;;;;;;480311;247;28174;-73
2023/01/16 10:11:43;;;;;;;3.67;1.65;;;4.00;99.90;;;;;;480330;247;27966;-73
2023/01/16 10:13:44;;;;;;;2.33;1.70;;;4.10;99.90;;;;;;480312;247;27906;-74
2023/01/16 10:15:46;;;;;;;2.85;1.20;;;4.20;99.90;;;;;;480343;247;27410;-75
2023/01/16 10:17:47;;;;;;;1.80;1.30;;;4.20;99.90;;;;;;480322;247;27481;-72
2023/01/16 10:19:48;;;;;;;2.10;1.35;;;4.20;99.90;;;;;;480298;247;27539;-72
2023/01/16 10:21:49;;;;;;;1.58;1.48;;;4.30;99.90;;;;;;480309;247;27422;-73
2023/01/16 10:23:51;;;;;;;5.35;1.40;;;4.30;99.90;;;;;;480288;247;27523;-73
2023/01/16 10:25:52;;;;;;;1.77;1.50;;;4.30;99.90;;;;;;480306;247;27522;-73
2023/01/16 10:27:53;;;;;;;2.87;1.37;;;4.30;99.90;;;;;;480299;247;27467;-73
2023/01/16 10:29:54;;;;;;;1.25;1.20;;;4.40;99.90;;;;;;480333;247;28120;-75
2023/01/16 10:31:56;;;;;;;2.25;1.23;;;4.50;99.90;;;;;;480317;247;27973;-75
2023/01/16 10:33:57;;;;;;;2.25;1.35;;;4.50;99.90;;;;;;480300;247;27525;-72
2023/01/16 10:35:58;;;;;;;1.25;1.17;;;4.50;99.90;;;;;;480331;247;27633;-75
2023/01/16 10:37:59;;;;;;;3.45;1.20;;;4.50;99.90;;;;;;480326;247;27382;-73
2023/01/16 10:40:01;;;;;;;1.37;1.20;;;4.60;99.90;;;;;;480313;247;27522;-73
2023/01/16 10:51:20;;;;;;;1.75;1.45;;;4.60;99.90;;;;;;480302;247;27387;-73
2023/01/16 10:53:21;;;;;;;1.50;1.40;;;4.80;99.90;;;;;;480350;247;27486;-73
2023/01/16 10:55:23;;;;;;;2.12;1.50;;;4.90;99.90;;;;;;480351;247;27443;-73
2023/01/16 10:57:24;;;;;;;2.05;1.40;;;4.90;99.90;;;;;;480343;247;27387;-73
2023/01/16 10:59:25;;;;;;;1.00;1.00;;;5.00;99.90;;;;;;480338;247;27523;-76
2023/01/16 11:01:26;;;;;;;1.30;1.20;;;5.00;99.90;;;;;;480369;247;27431;-73
2023/01/16 11:03:28;;;;;;;1.30;1.20;;;5.00;99.90;;;;;;480358;247;27910;-73
2023/01/16 11:05:29;;;;;;;1.42;1.33;;;5.00;99.90;;;;;;480335;247;28096;-75
2023/01/16 11:07:30;;;;;;;1.50;1.40;;;5.10;99.90;;;;;;480342;247;27490;-73
2023/01/16 11:09:31;;;;;;;2.92;1.30;;;5.20;99.90;;;;;;480322;247;27407;-73
2023/01/16 11:18:31;;;;;;;1.58;1.20;;;5.40;99.90;;;;;;480312;247;27950;-73
2023/01/16 11:20:34;;;;;;;1.10;1.10;;;5.30;99.90;;;;;;480327;247;28049;-75
2023/01/16 11:22:34;;;;;;;1.23;1.12;;;5.30;99.90;;;;;;480291;247;27438;-73
2023/01/16 11:24:35;;;;;;;1.42;1.33;;;5.20;99.90;;;;;;480311;247;27526;-73
2023/01/16 11:26:36;;;;;;;1.27;1.17;;;5.10;99.90;;;;;;480328;247;27522;-73
2023/01/16 11:28:38;;;;;;;1.85;1.25;;;5.10;99.90;;;;;;480330;247;27503;-72
2023/01/16 11:30:39;;;;;;;1.20;1.10;;;5.20;99.90;;;;;;480334;247;27383;-73